Portada
METAR-TAF:

METAR-TAF

Aeropuertos :

Okmulgee, Oklahoma, Estados Unidos

latitud: 35-40-05N, longitud: 095-56-55W, altitud: 220 m

Observación

El informe se hizo hace 32 minutos, a las 23:55 UTC
Viento 10 kt del norte-noreste
Temperatura 28°C
Humedad 55%
Presión 1018 hPa
Visibilidad: 16.1 km
Cielo despejado

METAR: KOKM 012355Z AUTO 03010KT 10SM CLR 28/18 A3005 RMK AO2 T02840180 10313 20263

Hora: 19:27 (00:27 UTC)


TAF: falta

Observaciones y pronósticos meteorológicos de más de 4000 aeropuertos (mensajes METAR y TAF).

Los puntos amarillos y rojos representan las estaciones disponibles.

Ponga el ratón en el punto deseado para ver el nombre de la estación.

Haga clic para ver las observaciones y los pronósticos meteorológicos.

Para cambiar el mapa : haga clic en los botones verdes con una cruz de color negro para hacer un zoom, en el botón verde con un guión para alejar o en las flechas verdes para mapas adyacentes.


METAR-TAF: